createdAt,value
2022-08-23T00:02:00.022Z,21.55
2022-08-23T00:04:35.064Z,21.54
2022-08-23T00:07:06.826Z,21.51
2022-08-23T00:09:33.980Z,21.48
2022-08-23T00:12:07.609Z,21.44
2022-08-23T00:14:37.099Z,21.40
2022-08-23T00:17:05.618Z,21.35
2022-08-23T00:19:33.104Z,21.33
2022-08-23T00:22:00.189Z,21.28
2022-08-23T00:24:27.572Z,21.25
2022-08-23T00:26:57.271Z,21.18
2022-08-23T00:29:31.365Z,21.14
2022-08-23T00:31:59.072Z,21.13
2022-08-23T00:34:27.307Z,21.10
2022-08-23T00:36:54.935Z,21.08
2022-08-23T00:39:22.659Z,21.05
2022-08-23T00:41:50.402Z,21.07
2022-08-23T00:44:44.743Z,21.06
2022-08-23T00:47:33.197Z,21.01
2022-08-23T00:50:23.581Z,21.01
2022-08-23T00:53:03.451Z,20.99
2022-08-23T00:55:31.406Z,20.95
2022-08-23T01:02:25.876Z,20.92
2022-08-23T01:05:00.170Z,20.91
2022-08-23T01:07:49.023Z,20.89
2022-08-23T01:10:42.108Z,20.86
2022-08-23T01:13:21.144Z,20.84
2022-08-23T01:15:55.231Z,20.81
2022-08-23T01:18:26.250Z,20.83
2022-08-23T01:21:05.361Z,20.79
2022-08-23T01:23:59.810Z,20.75
2022-08-23T01:26:28.414Z,20.72
2022-08-23T01:28:55.772Z,20.67
2022-08-23T01:31:26.947Z,20.68
2022-08-23T01:34:09.633Z,20.62
2022-08-23T01:36:37.429Z,20.62
2022-08-23T01:39:06.169Z,20.57
2022-08-23T01:41:33.899Z,20.61
2022-08-23T01:44:01.102Z,20.59
2022-08-23T01:46:28.988Z,20.56
2022-08-23T01:53:07.151Z,20.48
2022-08-23T01:55:35.243Z,20.50
2022-08-23T01:58:03.683Z,20.48
2022-08-23T02:00:35.702Z,20.45
2022-08-23T02:03:04.864Z,20.46
2022-08-23T02:05:33.337Z,20.44
2022-08-23T02:08:23.776Z,20.43
2022-08-23T02:10:54.609Z,20.44
2022-08-23T02:13:22.632Z,20.43
2022-08-23T02:15:51.483Z,20.42
2022-08-23T02:18:21.184Z,20.39
2022-08-23T02:20:51.816Z,20.41
2022-08-23T02:23:20.346Z,20.42
2022-08-23T02:25:47.680Z,20.41
2022-08-23T02:28:15.088Z,20.41
2022-08-23T02:30:45.708Z,20.40
2022-08-23T02:33:14.634Z,20.41
2022-08-23T02:35:43.852Z,20.41
2022-08-23T02:38:12.626Z,20.43
2022-08-23T02:40:40.726Z,20.42
2022-08-23T02:43:08.424Z,20.40
2022-08-23T02:45:37.103Z,20.41
2022-08-23T02:48:10.339Z,20.43
2022-08-23T02:50:52.656Z,20.43
2022-08-23T02:53:20.058Z,20.44
2022-08-23T02:55:47.974Z,20.45
2022-08-23T02:58:15.206Z,20.46
2022-08-23T03:00:47.385Z,20.45
2022-08-23T03:03:17.440Z,20.45
2022-08-23T03:05:44.780Z,20.49
2022-08-23T03:08:14.827Z,20.48
2022-08-23T03:10:50.012Z,20.52
2022-08-23T03:13:17.390Z,20.52
2022-08-23T03:15:46.721Z,20.55
2022-08-23T03:18:14.094Z,20.51
2022-08-23T03:20:42.807Z,20.58
2022-08-23T03:23:12.270Z,20.62
2022-08-23T03:25:39.602Z,20.63
2022-08-23T03:28:17.143Z,20.61
2022-08-23T03:30:45.377Z,20.63
2022-08-23T03:33:13.447Z,20.65
2022-08-23T03:35:42.075Z,20.66
2022-08-23T03:38:12.149Z,20.72
2022-08-23T03:40:39.658Z,20.72
2022-08-23T03:43:06.945Z,20.87
2022-08-23T03:45:38.107Z,20.96
2022-08-23T03:48:05.348Z,21.01
2022-08-23T03:50:34.489Z,21.13
2022-08-23T03:53:01.697Z,21.16
2022-08-23T03:55:28.759Z,21.18
2022-08-23T03:57:56.800Z,21.23
2022-08-23T04:00:23.826Z,21.30
2022-08-23T04:02:53.396Z,21.32
2022-08-23T04:05:23.568Z,21.36
2022-08-23T04:07:50.661Z,21.40
2022-08-23T04:10:21.128Z,21.52
2022-08-23T04:12:54.014Z,21.57
2022-08-23T04:15:24.805Z,21.71
2022-08-23T04:17:52.209Z,21.80
2022-08-23T04:20:19.567Z,21.93
2022-08-23T04:23:05.155Z,22.02
2022-08-23T04:25:40.128Z,22.13
2022-08-23T04:28:07.133Z,22.13
2022-08-23T04:30:34.545Z,22.18
2022-08-23T04:33:10.209Z,22.10
2022-08-23T04:35:41.531Z,22.18
2022-08-23T04:38:24.654Z,22.29
2022-08-23T04:41:14.226Z,22.50
2022-08-23T04:43:44.111Z,22.76
2022-08-23T04:46:15.614Z,23.10
2022-08-23T04:48:45.407Z,23.50
2022-08-23T04:51:13.257Z,23.89
2022-08-23T04:53:41.203Z,24.43
2022-08-23T04:56:26.707Z,24.93
2022-08-23T04:58:54.864Z,25.32
2022-08-23T05:01:25.660Z,25.83
2022-08-23T05:03:55.451Z,26.57
2022-08-23T05:06:25.093Z,27.09
2022-08-23T05:08:55.328Z,27.36
2022-08-23T05:11:22.951Z,27.83
2022-08-23T05:13:50.445Z,28.13
2022-08-23T05:16:17.738Z,28.31
2022-08-23T05:18:59.945Z,28.34
2022-08-23T05:21:27.008Z,28.24
2022-08-23T05:23:54.788Z,28.15
2022-08-23T05:26:25.068Z,27.75
2022-08-23T05:28:52.383Z,27.47
2022-08-23T05:31:26.351Z,27.49
2022-08-23T05:33:55.761Z,27.29
2022-08-23T05:36:50.234Z,27.36
2022-08-23T05:39:36.439Z,27.22
2022-08-23T05:42:10.312Z,27.17
2022-08-23T05:44:38.016Z,27.19
2022-08-23T05:47:11.100Z,27.57
2022-08-23T05:50:06.042Z,27.73
2022-08-23T05:52:36.429Z,27.70
2022-08-23T05:55:04.126Z,27.59
2022-08-23T05:57:43.077Z,27.60
2022-08-23T06:00:14.950Z,27.47
2022-08-23T06:02:54.269Z,27.35
2022-08-23T06:05:26.121Z,27.38
2022-08-23T06:08:00.923Z,27.18
2022-08-23T06:10:31.106Z,27.11
2022-08-23T06:13:08.348Z,27.44
2022-08-23T06:15:36.209Z,27.78
2022-08-23T06:18:13.292Z,28.22
2022-08-23T06:20:42.170Z,28.69
2022-08-23T06:23:13.911Z,29.50
2022-08-23T06:25:43.135Z,29.83
2022-08-23T06:28:25.026Z,30.32
2022-08-23T06:31:18.783Z,31.04
2022-08-23T06:34:03.801Z,31.81
2022-08-23T06:36:58.615Z,32.43
2022-08-23T06:39:51.926Z,32.42
2022-08-23T06:42:38.637Z,32.22
2022-08-23T06:45:09.171Z,32.10
2022-08-23T06:47:40.277Z,32.19
2022-08-23T06:50:12.358Z,32.24
2022-08-23T06:53:02.148Z,32.59
2022-08-23T06:56:00.568Z,33.34
2022-08-23T06:58:36.234Z,33.98
2022-08-23T07:01:42.209Z,34.70
2022-08-23T07:04:14.486Z,35.11
2022-08-23T07:07:07.085Z,36.15
2022-08-23T07:09:37.203Z,36.00
2022-08-23T07:12:06.591Z,36.35
2022-08-23T07:14:35.523Z,36.51
2022-08-23T07:17:03.746Z,36.79
2022-08-23T07:19:34.439Z,37.30
2022-08-23T07:22:03.815Z,37.65
2022-08-23T07:24:35.362Z,38.30
2022-08-23T07:27:09.988Z,38.50
2022-08-23T07:30:05.986Z,38.57
2022-08-23T07:32:34.779Z,37.83
2022-08-23T07:35:21.667Z,37.93
2022-08-23T07:37:53.154Z,37.59
2022-08-23T07:40:21.202Z,37.48
2022-08-23T07:42:55.895Z,37.37
2022-08-23T07:45:24.310Z,37.68
2022-08-23T07:47:55.313Z,38.44
2022-08-23T07:50:26.089Z,38.85
2022-08-23T07:52:59.140Z,39.02
2022-08-23T07:55:26.434Z,38.59
2022-08-23T07:58:13.061Z,37.81
2022-08-23T08:00:52.422Z,37.78
2022-08-23T08:03:34.200Z,38.11
2022-08-23T08:06:34.042Z,38.41
2022-08-23T08:09:02.230Z,39.13
2022-08-23T08:11:34.929Z,39.52
2022-08-23T08:14:07.332Z,40.38
2022-08-23T08:16:48.078Z,39.98
2022-08-23T08:19:21.248Z,39.66
2022-08-23T08:22:13.189Z,39.94
2022-08-23T08:25:00.501Z,40.23
2022-08-23T08:27:28.428Z,40.29
2022-08-23T08:29:56.418Z,39.98
2022-08-23T08:32:23.504Z,39.51
2022-08-23T08:34:50.707Z,38.45
2022-08-23T08:37:18.054Z,37.39
2022-08-23T08:39:46.153Z,36.90
2022-08-23T08:42:50.892Z,36.47
2022-08-23T08:45:28.473Z,36.01
2022-08-23T08:48:03.841Z,36.12
2022-08-23T08:51:06.273Z,36.23
2022-08-23T08:53:41.993Z,37.02
2022-08-23T08:56:36.931Z,37.43
2022-08-23T08:59:20.159Z,38.49
2022-08-23T09:01:48.698Z,39.19
2022-08-23T09:04:22.942Z,39.70
2022-08-23T09:06:54.702Z,39.30
2022-08-23T09:09:49.232Z,39.33
2022-08-23T09:12:49.712Z,38.83
2022-08-23T09:15:46.874Z,39.04
2022-08-23T09:18:16.378Z,38.74
2022-08-23T09:20:47.364Z,38.71
2022-08-23T09:23:25.552Z,37.96
2022-08-23T09:26:02.607Z,37.71
2022-08-23T09:28:36.657Z,36.92
2022-08-23T09:31:08.239Z,36.67
2022-08-23T09:33:42.381Z,36.65
2022-08-23T09:36:27.075Z,36.33
2022-08-23T09:39:01.879Z,36.14
2022-08-23T09:41:39.257Z,35.69
2022-08-23T09:44:13.895Z,35.50
2022-08-23T09:46:46.205Z,35.63
2022-08-23T09:49:30.161Z,35.93
2022-08-23T09:52:31.428Z,35.77
2022-08-23T09:55:26.697Z,35.62
2022-08-23T09:57:53.856Z,35.54
2022-08-23T10:00:34.115Z,35.73
2022-08-23T10:03:28.153Z,35.70
2022-08-23T10:06:02.186Z,35.61
2022-08-23T10:08:42.334Z,35.14
2022-08-23T10:11:28.327Z,34.90
2022-08-23T10:13:57.540Z,34.34
2022-08-23T10:17:19.301Z,34.05
2022-08-23T10:20:14.957Z,34.18
2022-08-23T10:22:53.708Z,34.47
2022-08-23T10:25:42.196Z,34.35
2022-08-23T10:28:57.840Z,34.32
2022-08-23T10:31:39.856Z,34.42
2022-08-23T10:34:13.379Z,34.43
2022-08-23T10:37:08.681Z,34.30
2022-08-23T10:39:48.186Z,33.84
2022-08-23T10:42:25.853Z,33.56
2022-08-23T10:45:27.691Z,33.42
2022-08-23T10:48:03.305Z,33.35
2022-08-23T10:50:55.734Z,33.18
2022-08-23T10:53:56.777Z,33.41
2022-08-23T10:56:24.892Z,33.55
2022-08-23T10:58:58.459Z,33.51
2022-08-23T11:01:46.118Z,33.49
2022-08-23T11:04:33.830Z,33.11
2022-08-23T11:07:37.488Z,33.15
2022-08-23T11:10:30.028Z,33.06
2022-08-23T11:13:06.274Z,32.89
2022-08-23T11:16:02.895Z,32.84
2022-08-23T11:19:07.603Z,32.78
2022-08-23T11:24:48.837Z,32.41
2022-08-23T11:27:29.588Z,32.24
2022-08-23T11:29:57.679Z,32.33
2022-08-23T11:32:39.090Z,32.42
2022-08-23T11:35:31.039Z,32.34
2022-08-23T11:38:05.223Z,32.40
2022-08-23T11:40:53.390Z,32.39
2022-08-23T11:43:40.056Z,32.31
2022-08-23T11:46:28.473Z,32.41
2022-08-23T11:49:28.390Z,32.38
2022-08-23T11:52:13.505Z,32.40
2022-08-23T11:55:08.239Z,32.31
2022-08-23T11:57:58.315Z,32.23
2022-08-23T12:00:55.358Z,32.21
2022-08-23T12:03:36.955Z,32.25
2022-08-23T12:06:10.112Z,32.15
2022-08-23T12:08:46.160Z,32.10
2022-08-23T12:11:15.409Z,32.11
2022-08-23T12:13:48.241Z,32.17
2022-08-23T12:16:19.148Z,32.18
2022-08-23T12:18:49.305Z,32.24
2022-08-23T12:21:31.799Z,32.20
2022-08-23T12:24:16.794Z,32.28
2022-08-23T12:26:52.203Z,32.30
2022-08-23T12:29:42.306Z,32.21
2022-08-23T12:32:28.763Z,32.09
2022-08-23T12:35:03.584Z,32.07
2022-08-23T12:38:00.226Z,32.06
2022-08-23T12:40:42.550Z,32.02
2022-08-23T12:43:31.534Z,31.97
2022-08-23T12:46:02.819Z,32.02
2022-08-23T12:48:33.150Z,32.07
2022-08-23T12:51:08.159Z,32.11
2022-08-23T12:53:44.056Z,32.09
2022-08-23T12:56:31.663Z,32.09
2022-08-23T12:59:07.812Z,32.15
2022-08-23T13:01:39.645Z,32.18
2022-08-23T13:04:14.970Z,32.09
2022-08-23T13:07:00.213Z,31.88
2022-08-23T13:09:40.110Z,31.75
2022-08-23T13:12:10.595Z,31.72
2022-08-23T13:14:51.636Z,31.70
2022-08-23T13:17:33.071Z,31.61
2022-08-23T13:25:32.106Z,31.52
2022-08-23T13:28:29.087Z,31.49
2022-08-23T13:31:04.689Z,31.38
2022-08-23T13:33:36.288Z,31.30
2022-08-23T13:36:26.671Z,31.24
2022-08-23T13:39:09.166Z,31.32
2022-08-23T13:41:40.755Z,31.33
2022-08-23T13:44:09.704Z,31.35
2022-08-23T13:46:46.912Z,31.41
2022-08-23T13:49:20.790Z,31.43
2022-08-23T13:52:33.335Z,31.48
2022-08-23T13:54:53.095Z,31.53
2022-08-23T13:57:30.738Z,31.38
2022-08-23T14:00:10.827Z,31.53
2022-08-23T14:02:55.728Z,31.40
2022-08-23T14:05:28.429Z,31.27
2022-08-23T14:08:03.960Z,31.30
2022-08-23T14:10:32.145Z,31.36
2022-08-23T14:13:02.646Z,31.32
2022-08-23T14:18:22.626Z,31.30
2022-08-23T14:20:51.404Z,31.22
2022-08-23T14:23:19.107Z,31.12
2022-08-23T14:25:49.969Z,31.11
2022-08-23T14:28:18.851Z,31.04
2022-08-23T14:30:46.196Z,30.94
2022-08-23T14:33:13.317Z,30.85
2022-08-23T14:35:40.330Z,30.80
2022-08-23T14:38:10.441Z,30.79
2022-08-23T14:40:37.645Z,30.72
2022-08-23T14:43:05.866Z,30.65
2022-08-23T14:45:33.242Z,30.61
2022-08-23T14:48:00.510Z,30.55
2022-08-23T14:50:29.070Z,30.51
2022-08-23T14:52:56.396Z,30.43
2022-08-23T14:55:25.183Z,30.31
2022-08-23T14:57:52.853Z,30.25
2022-08-23T15:00:20.122Z,30.20
2022-08-23T15:02:48.910Z,30.14
2022-08-23T15:05:16.979Z,30.10
2022-08-23T15:07:44.621Z,30.02
2022-08-23T15:10:49.724Z,29.99
2022-08-23T15:13:15.544Z,29.92
2022-08-23T15:15:46.423Z,29.86
2022-08-23T15:18:17.688Z,29.79
2022-08-23T15:20:45.818Z,29.78
2022-08-23T15:23:13.270Z,29.75
2022-08-23T15:25:42.661Z,29.73
2022-08-23T15:28:17.333Z,29.65
2022-08-23T15:30:54.454Z,29.56
2022-08-23T15:33:34.244Z,29.47
2022-08-23T15:36:23.934Z,29.45
2022-08-23T15:38:55.918Z,29.49
2022-08-23T15:41:32.447Z,29.36
2022-08-23T15:44:02.805Z,29.37
2022-08-23T15:46:30.397Z,29.30
2022-08-23T15:49:15.023Z,29.27
2022-08-23T15:52:03.035Z,29.28
2022-08-23T15:54:30.317Z,29.14
2022-08-23T15:57:04.840Z,29.11
2022-08-23T15:59:36.851Z,29.11
2022-08-23T16:02:04.810Z,29.09
2022-08-23T16:04:35.807Z,29.03
2022-08-23T16:07:08.746Z,29.01
2022-08-23T16:09:36.958Z,28.96
2022-08-23T16:12:08.278Z,28.91
2022-08-23T16:14:36.856Z,28.83
2022-08-23T16:17:04.115Z,28.81
2022-08-23T16:19:31.528Z,28.73
2022-08-23T16:22:00.243Z,28.69
2022-08-23T16:24:30.256Z,28.65
2022-08-23T16:26:59.850Z,28.60
2022-08-23T16:29:31.954Z,28.57
2022-08-23T16:32:02.759Z,28.50
2022-08-23T16:34:29.815Z,28.46
2022-08-23T16:37:02.639Z,28.40
2022-08-23T16:39:34.511Z,28.37
2022-08-23T16:42:05.447Z,28.28
2022-08-23T16:44:35.692Z,28.24
2022-08-23T16:47:05.668Z,28.20
2022-08-23T16:49:34.074Z,28.14
2022-08-23T16:52:01.767Z,28.13
2022-08-23T16:54:28.983Z,28.10
2022-08-23T16:56:56.822Z,28.04
2022-08-23T16:59:24.781Z,27.97
2022-08-23T17:01:56.057Z,27.95
2022-08-23T17:04:29.469Z,27.92
2022-08-23T17:06:59.465Z,27.88
2022-08-23T17:09:28.588Z,27.79
2022-08-23T17:11:58.718Z,27.77
2022-08-23T17:14:26.703Z,27.72
2022-08-23T17:16:55.332Z,27.61
2022-08-23T17:19:22.638Z,27.65
2022-08-23T17:21:49.773Z,27.62
2022-08-23T17:24:19.618Z,27.58
2022-08-23T17:26:47.034Z,27.51
2022-08-23T17:29:14.249Z,27.43
2022-08-23T17:31:44.715Z,27.38
2022-08-23T17:34:14.239Z,27.34
2022-08-23T17:36:51.420Z,27.28
2022-08-23T17:39:22.414Z,27.22
2022-08-23T17:41:52.467Z,27.18
2022-08-23T17:44:20.545Z,27.14
2022-08-23T17:46:48.339Z,27.07
2022-08-23T17:49:17.731Z,27.03
2022-08-23T17:51:46.214Z,26.98
2022-08-23T17:54:18.586Z,26.92
2022-08-23T17:56:49.978Z,26.88
2022-08-23T17:59:20.367Z,26.83
2022-08-23T18:01:53.154Z,26.80
2022-08-23T18:04:23.033Z,26.77
2022-08-23T18:06:50.256Z,26.75
2022-08-23T18:09:17.806Z,26.73
2022-08-23T18:11:48.222Z,26.67
2022-08-23T18:14:15.377Z,26.65
2022-08-23T18:16:44.079Z,26.61
2022-08-23T18:19:13.539Z,26.59
2022-08-23T18:21:42.723Z,26.55
2022-08-23T18:24:10.605Z,26.51
2022-08-23T18:26:56.652Z,26.50
2022-08-23T18:29:24.451Z,26.45
2022-08-23T18:31:52.009Z,26.42
2022-08-23T18:34:20.044Z,26.35
2022-08-23T18:36:47.236Z,26.32
2022-08-23T18:39:15.235Z,26.28
2022-08-23T18:41:43.159Z,26.24
2022-08-23T18:44:11.110Z,26.19
2022-08-23T18:46:41.111Z,26.15
2022-08-23T18:49:11.176Z,26.13
2022-08-23T18:51:40.114Z,26.06
2022-08-23T18:54:08.571Z,26.03
2022-08-23T18:56:37.273Z,25.97
2022-08-23T18:59:06.191Z,25.97
2022-08-23T19:01:42.899Z,25.94
2022-08-23T19:04:11.495Z,25.94
2022-08-23T19:06:42.340Z,25.85
2022-08-23T19:09:12.873Z,25.85
2022-08-23T19:11:40.926Z,25.84
2022-08-23T19:14:12.997Z,25.82
2022-08-23T19:16:44.488Z,25.75
2022-08-23T19:19:14.724Z,25.73
2022-08-23T19:21:41.863Z,25.69
2022-08-23T19:24:09.063Z,25.67
2022-08-23T19:26:37.717Z,25.63
2022-08-23T19:29:08.728Z,25.59
2022-08-23T19:31:42.785Z,25.56
2022-08-23T19:34:10.772Z,25.51
2022-08-23T19:36:48.254Z,25.46
2022-08-23T19:39:21.291Z,25.43
2022-08-23T19:41:48.800Z,25.40
2022-08-23T19:44:17.702Z,25.39
2022-08-23T19:46:45.674Z,25.35
2022-08-23T19:49:14.815Z,25.30
2022-08-23T19:51:45.245Z,25.27
2022-08-23T19:54:13.768Z,25.26
2022-08-23T19:56:47.797Z,25.20
2022-08-23T19:59:21.086Z,25.16
2022-08-23T20:01:49.862Z,25.11
2022-08-23T20:04:18.535Z,25.06
2022-08-23T20:06:46.052Z,25.01
2022-08-23T20:09:13.257Z,24.95
2022-08-23T20:11:40.963Z,24.92
2022-08-23T20:14:08.831Z,24.85
2022-08-23T20:16:41.031Z,24.81
2022-08-23T20:19:10.240Z,24.80
2022-08-23T20:21:38.899Z,24.77
2022-08-23T20:24:09.656Z,24.75
2022-08-23T20:26:48.532Z,24.68
2022-08-23T20:29:17.386Z,24.66
2022-08-23T20:31:57.247Z,24.63
2022-08-23T20:34:26.550Z,24.60
2022-08-23T20:36:56.379Z,24.57
2022-08-23T20:39:24.808Z,24.51
2022-08-23T20:41:52.426Z,24.48
2022-08-23T20:44:25.305Z,24.42
2022-08-23T20:46:54.904Z,24.37
2022-08-23T20:49:25.115Z,24.33
2022-08-23T20:51:52.202Z,24.30
2022-08-23T20:54:19.723Z,24.25
2022-08-23T20:56:52.146Z,24.21
2022-08-23T20:59:20.067Z,24.14
2022-08-23T21:01:47.598Z,24.11
2022-08-23T21:04:15.003Z,24.14
2022-08-23T21:06:46.428Z,24.15
2022-08-23T21:09:17.266Z,24.16
2022-08-23T21:11:45.362Z,24.09
2022-08-23T21:14:16.369Z,24.01
2022-08-23T21:16:47.499Z,23.93
2022-08-23T21:19:15.084Z,23.87
2022-08-23T21:21:43.028Z,23.81
2022-08-23T21:24:11.129Z,23.74
2022-08-23T21:26:38.850Z,23.69
2022-08-23T21:29:07.895Z,23.65
2022-08-23T21:31:35.675Z,23.61
2022-08-23T21:34:02.939Z,23.55
2022-08-23T21:36:30.390Z,23.54
2022-08-23T21:38:57.398Z,23.54
2022-08-23T21:41:35.768Z,23.50
2022-08-23T21:44:05.916Z,23.46
2022-08-23T21:46:33.994Z,23.45
2022-08-23T21:49:01.745Z,23.42
2022-08-23T21:51:29.829Z,23.40
2022-08-23T21:53:57.691Z,23.37
2022-08-23T21:56:26.151Z,23.37
2022-08-23T21:58:57.623Z,23.33
2022-08-23T22:01:24.820Z,23.32
2022-08-23T22:03:56.287Z,23.31
2022-08-23T22:06:24.495Z,23.29
2022-08-23T22:08:51.597Z,23.27
2022-08-23T22:11:20.078Z,23.23
2022-08-23T22:13:47.350Z,23.21
2022-08-23T22:16:14.507Z,23.19
2022-08-23T22:18:42.919Z,23.18
2022-08-23T22:25:37.472Z,23.09
2022-08-23T22:28:04.585Z,23.06
2022-08-23T22:30:31.547Z,23.01
2022-08-23T22:32:58.668Z,23.00
2022-08-23T22:35:25.782Z,23.00
2022-08-23T22:38:12.722Z,22.98
2022-08-23T22:40:40.774Z,22.96
2022-08-23T22:43:08.162Z,22.93
2022-08-23T22:45:39.336Z,22.90
2022-08-23T22:48:09.026Z,22.87
2022-08-23T22:50:35.991Z,22.86
2022-08-23T22:53:03.022Z,22.88
2022-08-23T22:55:32.371Z,22.90
2022-08-23T22:57:59.462Z,22.95
2022-08-23T23:00:26.479Z,23.10
2022-08-23T23:02:56.087Z,23.08
2022-08-23T23:05:26.027Z,23.04
2022-08-23T23:08:11.810Z,22.97
2022-08-23T23:10:38.779Z,22.93
2022-08-23T23:13:05.702Z,22.89
2022-08-23T23:15:32.713Z,22.85
2022-08-23T23:17:59.788Z,22.81
2022-08-23T23:20:41.999Z,22.77
2022-08-23T23:23:12.635Z,22.75
2022-08-23T23:25:40.650Z,22.71
2022-08-23T23:28:08.347Z,22.68
2022-08-23T23:30:36.243Z,22.65
2022-08-23T23:33:04.150Z,22.65
2022-08-23T23:35:31.303Z,22.64
2022-08-23T23:37:58.999Z,22.61
2022-08-23T23:40:26.722Z,22.58
2022-08-23T23:42:54.606Z,22.56
2022-08-23T23:45:23.076Z,22.54
2022-08-23T23:47:50.303Z,22.52
2022-08-23T23:50:18.058Z,22.50
2022-08-23T23:52:46.119Z,22.48
2022-08-23T23:55:15.936Z,22.45
2022-08-23T23:57:43.707Z,22.42
